createdAt,value
2023-05-09T00:01:30.986Z,21.60
2023-05-09T00:04:02.898Z,16.52
2023-05-09T00:06:33.247Z,21.25
2023-05-09T00:09:02.676Z,16.58
2023-05-09T00:14:08.830Z,15.38
2023-05-09T00:16:38.522Z,22.23
2023-05-09T00:19:09.961Z,13.40
2023-05-09T00:21:45.103Z,20.45
2023-05-09T00:24:20.486Z,21.92
2023-05-09T00:26:49.890Z,17.45
2023-05-09T00:29:19.272Z,18.88
2023-05-09T00:31:53.962Z,14.82
2023-05-09T00:34:25.169Z,25.58
2023-05-09T00:36:54.381Z,19.52
2023-05-09T00:39:33.860Z,14.20
2023-05-09T00:42:03.246Z,21.83
2023-05-09T00:44:32.531Z,17.90
2023-05-09T00:47:02.127Z,19.02
2023-05-09T00:49:33.333Z,26.00
2023-05-09T00:52:09.464Z,15.60
2023-05-09T00:54:38.718Z,17.75
2023-05-09T00:57:08.102Z,20.15
2023-05-09T00:59:37.769Z,15.05
2023-05-09T01:02:07.174Z,15.48
2023-05-09T01:04:38.641Z,16.13
2023-05-09T01:07:15.852Z,20.60
2023-05-09T01:09:52.759Z,16.90
2023-05-09T01:12:33.446Z,22.42
2023-05-09T01:15:14.620Z,14.75
2023-05-09T01:18:00.201Z,16.08
2023-05-09T01:20:40.175Z,16.77
2023-05-09T01:23:36.997Z,17.10
2023-05-09T01:26:08.186Z,21.63
2023-05-09T01:29:01.268Z,16.60
2023-05-09T01:31:40.463Z,18.90
2023-05-09T01:34:16.978Z,22.83
2023-05-09T01:36:48.859Z,15.63
2023-05-09T01:39:21.966Z,20.27
2023-05-09T01:41:52.517Z,24.10
2023-05-09T01:44:24.352Z,19.70
2023-05-09T01:49:27.311Z,13.48
2023-05-09T01:52:03.217Z,24.80
2023-05-09T01:54:34.286Z,19.87
2023-05-09T01:57:06.246Z,23.38
2023-05-09T01:59:36.661Z,17.00
2023-05-09T02:02:09.700Z,20.42
2023-05-09T02:04:40.732Z,22.42
2023-05-09T02:07:11.467Z,23.05
2023-05-09T02:09:41.006Z,26.27
2023-05-09T02:12:10.632Z,23.35
2023-05-09T02:17:18.959Z,26.42
2023-05-09T02:19:48.495Z,27.55
2023-05-09T02:22:37.852Z,25.63
2023-05-09T02:25:15.011Z,22.48
2023-05-09T02:27:46.227Z,21.73
2023-05-09T02:30:20.758Z,21.65
2023-05-09T02:32:53.843Z,23.85
2023-05-09T02:35:24.697Z,24.23
2023-05-09T02:37:55.194Z,25.52
2023-05-09T02:40:25.191Z,22.92
2023-05-09T02:42:54.477Z,20.33
2023-05-09T02:45:25.027Z,27.92
2023-05-09T02:47:56.374Z,24.15
2023-05-09T02:50:25.843Z,22.30
2023-05-09T02:52:55.137Z,22.92
2023-05-09T02:55:29.856Z,19.17
2023-05-09T02:58:11.999Z,18.50
2023-05-09T03:00:44.608Z,16.08
2023-05-09T03:03:18.807Z,20.55
2023-05-09T03:05:48.789Z,20.15
2023-05-09T03:08:18.270Z,21.20
2023-05-09T03:10:48.381Z,14.85
2023-05-09T03:13:18.560Z,21.13
2023-05-09T03:15:53.091Z,16.77
2023-05-09T03:18:24.725Z,19.95
2023-05-09T03:20:54.618Z,19.70
2023-05-09T03:23:24.155Z,20.58
2023-05-09T03:25:58.748Z,18.15
2023-05-09T03:28:29.898Z,21.45
2023-05-09T03:31:07.919Z,20.63
2023-05-09T03:33:39.204Z,18.92
2023-05-09T03:36:14.655Z,20.40
2023-05-09T03:38:46.685Z,19.08
2023-05-09T03:41:18.348Z,16.63
2023-05-09T03:43:49.767Z,17.13
2023-05-09T03:46:24.230Z,15.88
2023-05-09T03:48:55.881Z,21.45
2023-05-09T03:51:32.007Z,17.85
2023-05-09T03:54:02.807Z,15.98
2023-05-09T03:56:32.297Z,17.45
2023-05-09T03:59:01.787Z,18.75
2023-05-09T04:01:32.047Z,17.58
2023-05-09T04:04:05.502Z,15.57
2023-05-09T04:06:38.445Z,16.67
2023-05-09T04:09:10.922Z,14.75
2023-05-09T04:11:43.553Z,18.35
2023-05-09T04:14:19.887Z,11.07
2023-05-09T04:16:49.405Z,8.88
2023-05-09T04:19:21.039Z,13.95
2023-05-09T04:21:50.876Z,11.27
2023-05-09T04:24:20.660Z,11.13
2023-05-09T04:26:51.103Z,12.90
2023-05-09T04:29:24.163Z,12.45
2023-05-09T04:31:59.637Z,13.27
2023-05-09T04:34:31.919Z,12.77
2023-05-09T04:37:06.286Z,14.45
2023-05-09T04:39:35.773Z,10.95
2023-05-09T04:42:29.205Z,9.00
2023-05-09T04:44:58.605Z,12.30
2023-05-09T04:47:41.365Z,16.42
2023-05-09T04:50:18.489Z,12.45
2023-05-09T04:52:48.369Z,11.43
2023-05-09T04:55:18.238Z,11.30
2023-05-09T04:57:50.945Z,11.20
2023-05-09T05:00:21.100Z,14.57
2023-05-09T05:03:11.716Z,12.53
2023-05-09T05:05:43.513Z,8.00
2023-05-09T05:08:13.939Z,9.02
2023-05-09T05:10:44.619Z,7.93
2023-05-09T05:13:21.203Z,5.80
2023-05-09T05:15:54.518Z,5.22
2023-05-09T05:18:24.346Z,11.35
2023-05-09T05:20:55.754Z,7.60
2023-05-09T05:23:30.873Z,7.40
2023-05-09T05:26:00.333Z,13.65
2023-05-09T05:28:30.632Z,17.73
2023-05-09T05:31:05.226Z,5.72
2023-05-09T05:33:35.225Z,4.65
2023-05-09T05:36:07.791Z,4.80
2023-05-09T05:38:37.211Z,6.63
2023-05-09T05:41:11.905Z,4.50
2023-05-09T05:43:43.523Z,9.20
2023-05-09T05:46:18.871Z,7.25
2023-05-09T05:48:48.257Z,5.95
2023-05-09T05:51:19.521Z,9.10
2023-05-09T05:53:49.196Z,3.28
2023-05-09T05:56:18.546Z,4.13
2023-05-09T05:58:48.239Z,7.95
2023-05-09T06:01:23.320Z,4.82
2023-05-09T06:03:54.571Z,4.03
2023-05-09T06:06:29.011Z,3.13
2023-05-09T06:08:58.698Z,4.88
2023-05-09T06:11:27.900Z,2.22
2023-05-09T06:13:57.265Z,3.15
2023-05-09T06:16:28.265Z,2.75
2023-05-09T06:18:57.768Z,1.90
2023-05-09T06:21:29.041Z,1.77
2023-05-09T06:24:11.804Z,1.77
2023-05-09T06:26:43.917Z,2.53
2023-05-09T06:29:14.825Z,1.75
2023-05-09T06:31:44.227Z,1.30
2023-05-09T06:34:13.607Z,1.50
2023-05-09T06:36:45.160Z,2.70
2023-05-09T06:39:14.565Z,2.65
2023-05-09T06:41:43.781Z,1.60
2023-05-09T06:44:31.787Z,2.22
2023-05-09T06:47:01.431Z,7.68
2023-05-09T06:49:30.656Z,4.25
2023-05-09T06:52:02.781Z,1.98
2023-05-09T06:54:32.586Z,2.25
2023-05-09T06:57:02.614Z,1.98
2023-05-09T06:59:32.663Z,2.42
2023-05-09T07:02:02.185Z,3.55
2023-05-09T07:04:38.496Z,1.15
2023-05-09T07:07:09.852Z,1.35
2023-05-09T07:09:39.437Z,1.30
2023-05-09T07:12:08.982Z,1.98
2023-05-09T07:14:38.257Z,1.48
2023-05-09T07:17:21.982Z,3.13
2023-05-09T07:19:53.013Z,2.10
2023-05-09T07:22:24.505Z,1.95
2023-05-09T07:24:54.002Z,3.97
2023-05-09T07:27:23.175Z,1.63
2023-05-09T07:29:53.255Z,1.83
2023-05-09T07:32:23.648Z,3.72
2023-05-09T07:34:53.132Z,1.40
2023-05-09T07:37:24.468Z,2.25
2023-05-09T07:39:53.827Z,1.35
2023-05-09T07:42:23.009Z,1.48
2023-05-09T07:44:52.571Z,2.15
2023-05-09T07:47:21.845Z,2.17
2023-05-09T07:49:56.368Z,1.20
2023-05-09T07:52:27.700Z,3.28
2023-05-09T07:54:57.263Z,1.58
2023-05-09T07:57:26.608Z,1.75
2023-05-09T07:59:56.196Z,3.03
2023-05-09T08:02:26.053Z,2.65
2023-05-09T08:04:55.578Z,2.13
2023-05-09T08:07:32.117Z,1.70
2023-05-09T08:10:01.693Z,2.33
2023-05-09T08:12:32.230Z,2.03
2023-05-09T08:15:01.582Z,3.75
2023-05-09T08:17:36.819Z,4.57
2023-05-09T08:20:26.038Z,2.13
2023-05-09T08:22:57.605Z,1.25
2023-05-09T08:25:27.039Z,1.48
2023-05-09T08:27:56.724Z,4.72
2023-05-09T08:30:26.764Z,1.60
2023-05-09T08:32:56.060Z,1.67
2023-05-09T08:35:25.395Z,1.25
2023-05-09T08:37:56.786Z,3.35
2023-05-09T08:40:26.290Z,5.07
2023-05-09T08:43:15.510Z,2.22
2023-05-09T08:45:49.107Z,1.40
2023-05-09T08:48:18.825Z,2.42
2023-05-09T08:50:48.122Z,1.25
2023-05-09T08:53:21.255Z,2.72
2023-05-09T09:01:08.685Z,3.45
2023-05-09T09:03:40.114Z,1.67
2023-05-09T09:06:11.461Z,2.17
2023-05-09T09:08:43.680Z,1.52
2023-05-09T09:11:14.225Z,2.45
2023-05-09T09:13:45.814Z,1.88
2023-05-09T09:16:27.146Z,1.52
2023-05-09T09:18:58.933Z,2.78
2023-05-09T09:21:35.294Z,4.95
2023-05-09T09:24:09.832Z,2.45
2023-05-09T09:26:48.414Z,3.65
2023-05-09T09:29:27.525Z,2.90
2023-05-09T09:32:01.943Z,2.22
2023-05-09T09:34:46.335Z,3.22
2023-05-09T09:37:24.098Z,2.40
2023-05-09T09:39:58.845Z,1.70
2023-05-09T09:42:28.390Z,2.55
2023-05-09T09:44:59.372Z,1.63
2023-05-09T09:47:35.426Z,1.48
2023-05-09T09:50:13.917Z,2.15
2023-05-09T09:52:55.550Z,3.25
2023-05-09T09:55:27.388Z,1.67
2023-05-09T10:00:29.658Z,2.88
2023-05-09T10:03:00.634Z,1.95
2023-05-09T10:05:31.440Z,3.50
2023-05-09T10:08:02.224Z,1.60
2023-05-09T10:10:35.258Z,1.73
2023-05-09T10:13:06.104Z,1.98
2023-05-09T10:15:52.212Z,1.52
2023-05-09T10:18:35.799Z,2.00
2023-05-09T10:21:06.603Z,8.45
2023-05-09T10:23:39.634Z,2.47
2023-05-09T10:26:20.710Z,2.15
2023-05-09T10:28:51.831Z,4.07
2023-05-09T10:31:27.194Z,1.55
2023-05-09T10:33:57.622Z,1.60
2023-05-09T10:36:28.170Z,3.92
2023-05-09T10:38:57.945Z,3.55
2023-05-09T10:41:29.376Z,3.38
2023-05-09T10:44:00.167Z,2.00
2023-05-09T10:46:30.184Z,1.60
2023-05-09T10:48:59.966Z,1.52
2023-05-09T10:51:31.112Z,2.88
2023-05-09T10:54:00.549Z,2.17
2023-05-09T10:56:35.521Z,2.05
2023-05-09T10:59:05.387Z,2.03
2023-05-09T11:01:37.412Z,5.88
2023-05-09T11:04:12.698Z,5.22
2023-05-09T11:06:48.951Z,2.80
2023-05-09T11:09:42.018Z,4.78
2023-05-09T11:12:17.244Z,3.20
2023-05-09T11:14:54.328Z,3.10
2023-05-09T11:17:32.435Z,2.75
2023-05-09T11:20:05.110Z,6.25
2023-05-09T11:22:49.582Z,3.60
2023-05-09T11:25:21.507Z,3.38
2023-05-09T11:30:22.940Z,5.32
2023-05-09T11:32:59.756Z,3.60
2023-05-09T11:35:29.984Z,3.15
2023-05-09T11:38:03.671Z,3.13
2023-05-09T11:40:34.249Z,4.90
2023-05-09T11:43:05.672Z,3.17
2023-05-09T11:45:43.939Z,4.20
2023-05-09T11:48:13.392Z,3.67
2023-05-09T11:50:43.035Z,2.70
2023-05-09T11:53:13.028Z,4.78
2023-05-09T11:55:43.445Z,3.55
2023-05-09T11:58:15.776Z,1.90
2023-05-09T12:00:47.036Z,5.50
2023-05-09T12:03:16.899Z,2.75
2023-05-09T12:05:46.946Z,4.00
2023-05-09T12:08:21.489Z,3.00
2023-05-09T12:10:51.152Z,4.82
2023-05-09T12:16:08.862Z,4.65
2023-05-09T12:18:38.269Z,3.95
2023-05-09T12:21:07.806Z,5.18
2023-05-09T12:23:37.286Z,4.00
2023-05-09T12:26:12.277Z,6.00
2023-05-09T12:28:44.609Z,4.25
2023-05-09T12:31:14.384Z,3.00
2023-05-09T12:33:44.033Z,2.53
2023-05-09T12:36:15.787Z,3.75
2023-05-09T12:38:55.450Z,2.83
2023-05-09T12:51:39.672Z,3.33
2023-05-09T12:54:15.737Z,2.28
2023-05-09T12:56:47.186Z,5.72
2023-05-09T12:59:21.971Z,3.45
2023-05-09T13:01:56.395Z,3.20
2023-05-09T13:04:31.138Z,3.15
2023-05-09T13:07:02.475Z,4.32
2023-05-09T13:09:33.702Z,5.22
2023-05-09T13:12:09.743Z,7.45
2023-05-09T13:14:39.217Z,5.30
2023-05-09T13:17:08.684Z,4.32
2023-05-09T13:19:44.144Z,3.65
2023-05-09T13:22:17.078Z,3.20
2023-05-09T13:24:46.550Z,4.47
2023-05-09T13:27:15.931Z,4.50
2023-05-09T13:29:45.516Z,3.42
2023-05-09T13:32:14.866Z,3.97
2023-05-09T13:34:44.402Z,2.70
2023-05-09T13:37:15.767Z,2.45
2023-05-09T13:39:45.231Z,2.33
2023-05-09T13:42:14.560Z,3.03
2023-05-09T13:44:43.896Z,7.28
2023-05-09T13:47:13.252Z,3.58
2023-05-09T13:49:42.592Z,4.18
2023-05-09T13:52:11.910Z,7.20
2023-05-09T13:54:43.358Z,15.05
2023-05-09T13:57:13.434Z,17.92
2023-05-09T13:59:42.999Z,5.72
2023-05-09T14:02:18.527Z,9.50
2023-05-09T14:04:52.922Z,6.28
2023-05-09T14:07:22.408Z,4.20
2023-05-09T14:09:58.749Z,2.50
2023-05-09T14:12:39.201Z,6.78
2023-05-09T14:15:10.657Z,4.00
2023-05-09T14:17:45.479Z,5.85
2023-05-09T14:20:15.898Z,6.03
2023-05-09T14:22:50.530Z,3.95
2023-05-09T14:25:22.363Z,5.63
2023-05-09T14:27:52.040Z,3.83
2023-05-09T14:30:21.624Z,26.88
2023-05-09T14:32:50.976Z,10.88
2023-05-09T14:35:20.779Z,6.75
2023-05-09T14:37:50.333Z,5.75
2023-05-09T14:40:23.003Z,3.58
2023-05-09T14:42:52.461Z,5.07
2023-05-09T14:45:21.780Z,6.18
2023-05-09T14:47:51.319Z,11.98
2023-05-09T14:50:21.922Z,6.82
2023-05-09T14:52:52.004Z,14.23
2023-05-09T14:55:23.637Z,12.10
2023-05-09T14:57:53.268Z,8.00
2023-05-09T15:00:24.028Z,13.18
2023-05-09T15:02:53.983Z,25.05
2023-05-09T15:05:23.606Z,11.10
2023-05-09T15:07:53.035Z,9.43
2023-05-09T15:10:29.415Z,9.10
2023-05-09T15:12:58.880Z,3.92
2023-05-09T15:15:28.772Z,11.55
2023-05-09T15:17:58.383Z,11.98
2023-05-09T15:20:27.775Z,6.88
2023-05-09T15:22:57.140Z,5.38
2023-05-09T15:25:28.515Z,7.50
2023-05-09T15:27:59.035Z,5.75
2023-05-09T15:30:29.130Z,8.98
2023-05-09T15:32:58.882Z,7.50
2023-05-09T15:35:28.696Z,6.05
2023-05-09T15:37:58.059Z,7.38
2023-05-09T15:40:29.861Z,13.93
2023-05-09T15:42:59.585Z,8.05
2023-05-09T15:45:44.846Z,10.63
2023-05-09T15:48:19.485Z,10.35
2023-05-09T15:50:49.243Z,9.07
2023-05-09T15:53:18.607Z,7.20
2023-05-09T15:55:55.139Z,4.25
2023-05-09T15:58:29.613Z,11.02
2023-05-09T16:00:59.191Z,15.18
2023-05-09T16:03:29.104Z,5.65
2023-05-09T16:06:02.648Z,7.93
2023-05-09T16:08:37.689Z,20.55
2023-05-09T16:13:46.220Z,8.05
2023-05-09T16:16:15.840Z,7.38
2023-05-09T16:18:45.180Z,8.45
2023-05-09T16:21:21.300Z,8.60
2023-05-09T16:23:50.753Z,15.75
2023-05-09T16:26:22.175Z,15.35
2023-05-09T16:28:56.769Z,19.17
2023-05-09T16:31:27.620Z,19.10
2023-05-09T16:33:57.941Z,16.38
2023-05-09T16:36:27.307Z,18.08
2023-05-09T16:38:56.882Z,14.50
2023-05-09T16:41:28.747Z,23.85
2023-05-09T16:46:27.737Z,14.85
2023-05-09T16:49:03.329Z,21.63
2023-05-09T16:51:33.222Z,28.98
2023-05-09T16:54:02.721Z,36.15
2023-05-09T16:56:34.272Z,29.02
2023-05-09T16:59:03.783Z,31.35
2023-05-09T17:01:33.466Z,33.17
2023-05-09T17:04:06.194Z,27.70
2023-05-09T17:06:37.543Z,31.83
2023-05-09T17:09:18.418Z,27.40
2023-05-09T17:11:54.763Z,30.98
2023-05-09T17:14:29.628Z,30.63
2023-05-09T17:17:00.105Z,36.72
2023-05-09T17:19:29.755Z,23.60
2023-05-09T17:22:03.867Z,31.60
2023-05-09T17:24:33.351Z,26.05
2023-05-09T17:27:11.010Z,20.70
2023-05-09T17:29:45.585Z,19.70
2023-05-09T17:32:15.874Z,22.35
2023-05-09T17:34:45.197Z,21.88
2023-05-09T17:37:14.469Z,20.73
2023-05-09T17:39:44.050Z,26.70
2023-05-09T17:42:20.760Z,29.80
2023-05-09T17:44:56.147Z,37.65
2023-05-09T17:47:30.723Z,32.25
2023-05-09T17:50:00.561Z,34.80
2023-05-09T17:52:29.857Z,27.50
2023-05-09T17:54:59.273Z,32.83
2023-05-09T17:57:30.753Z,35.90
2023-05-09T18:00:00.361Z,27.20
2023-05-09T18:02:29.826Z,23.60
2023-05-09T18:04:59.626Z,27.08
2023-05-09T18:07:29.008Z,30.05
2023-05-09T18:09:58.282Z,32.83
2023-05-09T18:12:30.870Z,31.95
2023-05-09T18:15:00.838Z,23.95
2023-05-09T18:17:30.155Z,26.92
2023-05-09T18:19:59.468Z,23.85
2023-05-09T18:22:28.796Z,24.02
2023-05-09T18:24:58.197Z,26.73
2023-05-09T18:27:29.428Z,32.92
2023-05-09T18:29:59.035Z,35.15
2023-05-09T18:32:29.510Z,30.88
2023-05-09T18:34:58.913Z,42.65
2023-05-09T18:37:28.299Z,34.63
2023-05-09T18:39:57.732Z,32.10
2023-05-09T18:42:27.745Z,23.00
2023-05-09T18:45:00.546Z,33.63
2023-05-09T18:47:29.926Z,25.23
2023-05-09T18:50:01.721Z,20.35
2023-05-09T18:52:34.392Z,20.45
2023-05-09T18:55:05.852Z,16.50
2023-05-09T18:57:35.450Z,20.77
2023-05-09T19:00:07.864Z,18.40
2023-05-09T19:02:38.080Z,19.25
2023-05-09T19:05:09.093Z,20.30
2023-05-09T19:07:39.357Z,24.97
2023-05-09T19:12:45.813Z,28.38
2023-05-09T19:15:17.142Z,18.08
2023-05-09T19:17:46.702Z,20.20
2023-05-09T19:20:21.300Z,17.27
2023-05-09T19:22:52.368Z,20.77
2023-05-09T19:25:22.411Z,28.02
2023-05-09T19:27:52.414Z,24.85
2023-05-09T19:30:24.058Z,20.48
2023-05-09T19:32:54.590Z,20.75
2023-05-09T19:35:24.305Z,22.00
2023-05-09T19:37:53.704Z,22.77
2023-05-09T19:40:28.481Z,22.42
2023-05-09T19:42:57.944Z,21.70
2023-05-09T19:45:29.548Z,24.95
2023-05-09T19:47:59.099Z,30.65
2023-05-09T19:50:28.541Z,24.85
2023-05-09T19:52:57.998Z,20.35
2023-05-09T19:55:27.591Z,21.73
2023-05-09T19:57:57.136Z,23.98
2023-05-09T20:00:28.437Z,21.55
2023-05-09T20:03:02.935Z,25.42
2023-05-09T20:08:25.168Z,20.35
2023-05-09T20:10:54.840Z,15.18
2023-05-09T20:13:24.214Z,19.90
2023-05-09T20:15:57.242Z,23.27
2023-05-09T20:18:26.700Z,22.05
2023-05-09T20:20:56.523Z,18.00
2023-05-09T20:23:26.000Z,22.17
2023-05-09T20:25:55.452Z,14.63
2023-05-09T20:28:24.917Z,17.92
2023-05-09T20:33:32.212Z,19.73
2023-05-09T20:36:09.265Z,19.70
2023-05-09T20:38:38.723Z,16.95
2023-05-09T20:41:08.043Z,13.93
2023-05-09T20:43:38.076Z,16.73
2023-05-09T20:46:09.274Z,16.25
2023-05-09T20:48:38.793Z,21.50
2023-05-09T20:51:08.170Z,16.42
2023-05-09T20:53:49.470Z,19.42
2023-05-09T20:56:19.273Z,15.30
2023-05-09T20:58:48.525Z,19.48
2023-05-09T21:01:20.403Z,20.45
2023-05-09T21:06:25.257Z,24.15
2023-05-09T21:08:54.598Z,23.33
2023-05-09T21:11:29.177Z,21.48
2023-05-09T21:13:58.546Z,20.05
2023-05-09T21:19:10.585Z,15.68
2023-05-09T21:21:40.299Z,19.92
2023-05-09T21:24:10.679Z,17.90
2023-05-09T21:26:45.039Z,17.30
2023-05-09T21:29:14.384Z,24.20
2023-05-09T21:31:45.801Z,19.25
2023-05-09T21:34:26.477Z,14.65
2023-05-09T21:36:55.864Z,18.05
2023-05-09T21:39:25.391Z,18.60
2023-05-09T21:41:59.950Z,17.77
2023-05-09T21:44:29.954Z,17.10
2023-05-09T21:47:01.460Z,16.17
2023-05-09T21:49:31.073Z,13.13
2023-05-09T21:52:00.740Z,18.75
2023-05-09T21:54:30.181Z,16.52
2023-05-09T21:56:59.320Z,17.85
2023-05-09T21:59:28.953Z,15.75
2023-05-09T22:02:03.257Z,12.65
2023-05-09T22:04:34.609Z,13.55
2023-05-09T22:07:09.080Z,19.05
2023-05-09T22:09:38.639Z,15.07
2023-05-09T22:12:08.603Z,17.23
2023-05-09T22:14:45.371Z,20.90
2023-05-09T22:17:33.156Z,14.90
2023-05-09T22:20:04.854Z,17.08
2023-05-09T22:22:35.105Z,15.88
2023-05-09T22:25:05.415Z,15.43
2023-05-09T22:27:34.890Z,18.48
2023-05-09T22:30:04.199Z,17.30
2023-05-09T22:32:35.784Z,20.73
2023-05-09T22:35:08.013Z,23.42
2023-05-09T22:37:37.540Z,25.38
2023-05-09T22:40:09.588Z,14.00
2023-05-09T22:42:43.988Z,18.45
2023-05-09T22:45:24.592Z,16.02
2023-05-09T22:47:54.061Z,12.70
2023-05-09T22:50:25.426Z,12.10
2023-05-09T22:52:59.875Z,10.43
2023-05-09T22:55:34.175Z,14.18
2023-05-09T22:58:05.306Z,12.48
2023-05-09T23:00:34.596Z,9.85
2023-05-09T23:05:53.112Z,10.73
2023-05-09T23:08:27.663Z,10.18
2023-05-09T23:10:56.958Z,7.50
2023-05-09T23:13:31.483Z,12.10
2023-05-09T23:16:00.674Z,10.15
2023-05-09T23:18:30.769Z,10.63
2023-05-09T23:21:01.917Z,9.45
2023-05-09T23:23:31.325Z,10.43
2023-05-09T23:26:00.585Z,10.82
2023-05-09T23:28:30.080Z,10.20
2023-05-09T23:30:59.322Z,13.93
2023-05-09T23:33:29.175Z,9.60
2023-05-09T23:35:58.931Z,9.45
2023-05-09T23:38:30.318Z,16.67
2023-05-09T23:43:40.528Z,12.15
2023-05-09T23:46:09.901Z,11.00
2023-05-09T23:48:39.368Z,11.65
2023-05-09T23:51:08.793Z,11.10
2023-05-09T23:53:40.121Z,8.23
2023-05-09T23:56:15.138Z,13.98
2023-05-09T23:58:44.581Z,10.27
